sensor_id;sensor_type;location;lat;lon;timestamp;temperature;humidity
37530;DHT22;23374;52.758;6.872;2022-07-03T00:00:25;21.10;99.90
37530;DHT22;23374;52.758;6.872;2022-07-03T00:02:46;21.00;99.90
37530;DHT22;23374;52.758;6.872;2022-07-03T00:05:07;21.00;99.90
37530;DHT22;23374;52.758;6.872;2022-07-03T00:08:40;20.90;1.00
37530;DHT22;23374;52.758;6.872;2022-07-03T00:11:00;20.80;1.00
37530;DHT22;23374;52.758;6.872;2022-07-03T00:13:20;20.80;1.00
37530;DHT22;23374;52.758;6.872;2022-07-03T00:15:41;20.80;1.00
37530;DHT22;23374;52.758;6.872;2022-07-03T00:18:01;20.70;1.00
37530;DHT22;23374;52.758;6.872;2022-07-03T00:20:23;20.70;1.00
37530;DHT22;23374;52.758;6.872;2022-07-03T00:22:46;20.70;1.00
37530;DHT22;23374;52.758;6.872;2022-07-03T00:25:10;20.60;1.00
37530;DHT22;23374;52.758;6.872;2022-07-03T00:27:33;20.60;1.00
37530;DHT22;23374;52.758;6.872;2022-07-03T00:29:59;20.60;1.00
37530;DHT22;23374;52.758;6.872;2022-07-03T00:32:22;20.50;1.00
37530;DHT22;23374;52.758;6.872;2022-07-03T00:34:43;20.50;1.00
37530;DHT22;23374;52.758;6.872;2022-07-03T00:37:06;20.50;1.00
37530;DHT22;23374;52.758;6.872;2022-07-03T00:39:28;20.50;1.00
37530;DHT22;23374;52.758;6.872;2022-07-03T00:42:01;20.50;1.00
37530;DHT22;23374;52.758;6.872;2022-07-03T00:44:22;20.50;1.00
37530;DHT22;23374;52.758;6.872;2022-07-03T00:46:47;20.50;1.00
37530;DHT22;23374;52.758;6.872;2022-07-03T00:49:10;20.50;1.00
37530;DHT22;23374;52.758;6.872;2022-07-03T00:51:34;20.50;1.00
37530;DHT22;23374;52.758;6.872;2022-07-03T00:53:58;20.50;1.00
37530;DHT22;23374;52.758;6.872;2022-07-03T00:56:30;20.50;1.00
37530;DHT22;23374;52.758;6.872;2022-07-03T00:59:00;20.50;1.00
37530;DHT22;23374;52.758;6.872;2022-07-03T01:01:22;20.40;1.00
37530;DHT22;23374;52.758;6.872;2022-07-03T01:03:45;20.40;1.00
37530;DHT22;23374;52.758;6.872;2022-07-03T01:06:14;20.40;1.00
37530;DHT22;23374;52.758;6.872;2022-07-03T01:08:50;20.40;1.00
37530;DHT22;23374;52.758;6.872;2022-07-03T01:11:38;20.40;1.00
37530;DHT22;23374;52.758;6.872;2022-07-03T01:14:38;20.40;1.00
37530;DHT22;23374;52.758;6.872;2022-07-03T01:17:20;20.30;1.00
37530;DHT22;23374;52.758;6.872;2022-07-03T01:19:48;20.30;1.00
37530;DHT22;23374;52.758;6.872;2022-07-03T01:26:24;20.10;99.90
37530;DHT22;23374;52.758;6.872;2022-07-03T01:28:47;20.10;72.10
37530;DHT22;23374;52.758;6.872;2022-07-03T01:31:10;20.00;51.90
37530;DHT22;23374;52.758;6.872;2022-07-03T01:33:36;20.00;74.20
37530;DHT22;23374;52.758;6.872;2022-07-03T01:36:06;19.90;99.90
37530;DHT22;23374;52.758;6.872;2022-07-03T01:38:30;19.90;99.90
37530;DHT22;23374;52.758;6.872;2022-07-03T01:40:51;19.80;99.90
37530;DHT22;23374;52.758;6.872;2022-07-03T01:43:15;19.80;99.90
37530;DHT22;23374;52.758;6.872;2022-07-03T01:45:44;19.80;99.90
37530;DHT22;23374;52.758;6.872;2022-07-03T01:48:06;19.80;99.90
37530;DHT22;23374;52.758;6.872;2022-07-03T01:50:28;19.80;99.90
37530;DHT22;23374;52.758;6.872;2022-07-03T01:52:50;19.80;1.00
37530;DHT22;23374;52.758;6.872;2022-07-03T01:55:15;19.70;1.00
37530;DHT22;23374;52.758;6.872;2022-07-03T01:57:50;19.60;1.00
37530;DHT22;23374;52.758;6.872;2022-07-03T02:00:13;19.50;1.00
37530;DHT22;23374;52.758;6.872;2022-07-03T02:02:37;19.50;1.00
37530;DHT22;23374;52.758;6.872;2022-07-03T02:09:04;19.30;40.60
37530;DHT22;23374;52.758;6.872;2022-07-03T02:11:28;19.20;3.00
37530;DHT22;23374;52.758;6.872;2022-07-03T02:14:40;19.20;54.30
37530;DHT22;23374;52.758;6.872;2022-07-03T02:17:21;19.20;99.90
37530;DHT22;23374;52.758;6.872;2022-07-03T02:19:54;19.10;99.90
37530;DHT22;23374;52.758;6.872;2022-07-03T02:22:19;19.10;99.90
37530;DHT22;23374;52.758;6.872;2022-07-03T02:24:44;19.00;99.90
37530;DHT22;23374;52.758;6.872;2022-07-03T02:27:09;19.00;99.90
37530;DHT22;23374;52.758;6.872;2022-07-03T02:29:49;18.90;99.90
37530;DHT22;23374;52.758;6.872;2022-07-03T02:32:21;18.80;99.90
37530;DHT22;23374;52.758;6.872;2022-07-03T02:34:45;18.80;99.90
37530;DHT22;23374;52.758;6.872;2022-07-03T02:37:19;18.70;99.90
37530;DHT22;23374;52.758;6.872;2022-07-03T02:39:51;18.70;99.90
37530;DHT22;23374;52.758;6.872;2022-07-03T02:42:50;18.70;1.00
37530;DHT22;23374;52.758;6.872;2022-07-03T02:45:14;18.60;1.00
37530;DHT22;23374;52.758;6.872;2022-07-03T02:48:02;18.60;1.00
37530;DHT22;23374;52.758;6.872;2022-07-03T02:50:28;18.50;1.00
37530;DHT22;23374;52.758;6.872;2022-07-03T02:53:08;18.50;1.00
37530;DHT22;23374;52.758;6.872;2022-07-03T02:55:45;18.50;1.00
37530;DHT22;23374;52.758;6.872;2022-07-03T03:00:02;18.40;1.00
37530;DHT22;23374;52.758;6.872;2022-07-03T03:03:09;18.40;99.90
37530;DHT22;23374;52.758;6.872;2022-07-03T03:05:47;18.30;99.90
37530;DHT22;23374;52.758;6.872;2022-07-03T03:08:35;18.20;99.90
37530;DHT22;23374;52.758;6.872;2022-07-03T03:11:07;18.20;99.90
37530;DHT22;23374;52.758;6.872;2022-07-03T03:13:31;18.10;5.90
37530;DHT22;23374;52.758;6.872;2022-07-03T03:16:09;18.00;2.50
37530;DHT22;23374;52.758;6.872;2022-07-03T03:18:29;18.00;99.90
37530;DHT22;23374;52.758;6.872;2022-07-03T03:20:53;18.00;40.60
37530;DHT22;23374;52.758;6.872;2022-07-03T03:24:09;17.90;51.10
37530;DHT22;23374;52.758;6.872;2022-07-03T03:26:30;17.90;99.90
37530;DHT22;23374;52.758;6.872;2022-07-03T03:28:52;17.80;79.30
37530;DHT22;23374;52.758;6.872;2022-07-03T03:31:13;17.80;99.90
37530;DHT22;23374;52.758;6.872;2022-07-03T03:33:45;17.80;99.90
37530;DHT22;23374;52.758;6.872;2022-07-03T03:36:11;17.90;99.90
37530;DHT22;23374;52.758;6.872;2022-07-03T03:38:31;17.80;99.90
37530;DHT22;23374;52.758;6.872;2022-07-03T03:40:52;17.80;99.90
37530;DHT22;23374;52.758;6.872;2022-07-03T03:43:12;17.80;99.90
37530;DHT22;23374;52.758;6.872;2022-07-03T03:45:32;17.70;99.90
37530;DHT22;23374;52.758;6.872;2022-07-03T03:47:52;17.70;99.90
37530;DHT22;23374;52.758;6.872;2022-07-03T03:50:12;17.70;99.90
37530;DHT22;23374;52.758;6.872;2022-07-03T03:52:33;17.70;99.90
37530;DHT22;23374;52.758;6.872;2022-07-03T03:54:53;17.70;99.90
37530;DHT22;23374;52.758;6.872;2022-07-03T03:57:23;17.70;1.00
37530;DHT22;23374;52.758;6.872;2022-07-03T03:59:44;17.60;1.00
37530;DHT22;23374;52.758;6.872;2022-07-03T04:02:04;17.50;1.00
37530;DHT22;23374;52.758;6.872;2022-07-03T04:04:25;17.50;1.00
37530;DHT22;23374;52.758;6.872;2022-07-03T04:06:45;17.50;1.00
37530;DHT22;23374;52.758;6.872;2022-07-03T04:09:05;17.50;1.00
37530;DHT22;23374;52.758;6.872;2022-07-03T04:11:25;17.60;1.00
37530;DHT22;23374;52.758;6.872;2022-07-03T04:13:45;17.60;1.00
37530;DHT22;23374;52.758;6.872;2022-07-03T04:16:06;17.70;1.00
37530;DHT22;23374;52.758;6.872;2022-07-03T04:18:26;17.80;1.00
37530;DHT22;23374;52.758;6.872;2022-07-03T04:20:48;17.80;1.00
37530;DHT22;23374;52.758;6.872;2022-07-03T04:23:08;17.90;1.00
37530;DHT22;23374;52.758;6.872;2022-07-03T04:25:29;18.00;1.00
37530;DHT22;23374;52.758;6.872;2022-07-03T04:27:49;18.10;1.00
37530;DHT22;23374;52.758;6.872;2022-07-03T04:30:11;18.10;1.00
37530;DHT22;23374;52.758;6.872;2022-07-03T04:32:32;18.20;1.00
37530;DHT22;23374;52.758;6.872;2022-07-03T04:34:52;18.30;1.00
37530;DHT22;23374;52.758;6.872;2022-07-03T04:37:12;18.30;99.90
37530;DHT22;23374;52.758;6.872;2022-07-03T04:39:32;18.40;1.00
37530;DHT22;23374;52.758;6.872;2022-07-03T04:41:52;18.50;99.90
37530;DHT22;23374;52.758;6.872;2022-07-03T04:44:13;18.50;99.90
37530;DHT22;23374;52.758;6.872;2022-07-03T04:46:33;18.60;99.90
37530;DHT22;23374;52.758;6.872;2022-07-03T04:48:53;18.70;99.90
37530;DHT22;23374;52.758;6.872;2022-07-03T04:51:13;18.70;99.90
37530;DHT22;23374;52.758;6.872;2022-07-03T04:53:33;18.70;99.90
37530;DHT22;23374;52.758;6.872;2022-07-03T04:55:53;18.70;99.90
37530;DHT22;23374;52.758;6.872;2022-07-03T04:58:14;18.70;99.90
37530;DHT22;23374;52.758;6.872;2022-07-03T05:00:34;18.70;99.90
37530;DHT22;23374;52.758;6.872;2022-07-03T05:02:54;18.60;99.90
37530;DHT22;23374;52.758;6.872;2022-07-03T05:05:14;18.50;99.90
37530;DHT22;23374;52.758;6.872;2022-07-03T05:07:35;18.50;99.90
37530;DHT22;23374;52.758;6.872;2022-07-03T05:09:55;18.50;99.90
37530;DHT22;23374;52.758;6.872;2022-07-03T05:12:15;18.40;99.90
37530;DHT22;23374;52.758;6.872;2022-07-03T05:14:36;18.40;99.90
37530;DHT22;23374;52.758;6.872;2022-07-03T05:16:56;18.30;99.90
37530;DHT22;23374;52.758;6.872;2022-07-03T05:19:16;18.30;99.90
37530;DHT22;23374;52.758;6.872;2022-07-03T05:21:36;18.30;99.90
37530;DHT22;23374;52.758;6.872;2022-07-03T05:23:56;18.30;99.90
37530;DHT22;23374;52.758;6.872;2022-07-03T05:26:16;18.30;99.90
37530;DHT22;23374;52.758;6.872;2022-07-03T05:28:37;18.30;99.90
37530;DHT22;23374;52.758;6.872;2022-07-03T05:30:57;18.30;99.90
37530;DHT22;23374;52.758;6.872;2022-07-03T05:33:17;18.50;1.00
37530;DHT22;23374;52.758;6.872;2022-07-03T05:35:37;18.70;1.00
37530;DHT22;23374;52.758;6.872;2022-07-03T05:37:58;19.00;1.00
37530;DHT22;23374;52.758;6.872;2022-07-03T05:40:18;19.40;1.00
37530;DHT22;23374;52.758;6.872;2022-07-03T05:42:39;19.70;1.00
37530;DHT22;23374;52.758;6.872;2022-07-03T05:45:00;19.80;1.00
37530;DHT22;23374;52.758;6.872;2022-07-03T05:47:20;20.00;1.00
37530;DHT22;23374;52.758;6.872;2022-07-03T05:49:40;20.30;1.00
37530;DHT22;23374;52.758;6.872;2022-07-03T05:52:00;20.80;99.90
37530;DHT22;23374;52.758;6.872;2022-07-03T05:54:21;21.30;99.90
37530;DHT22;23374;52.758;6.872;2022-07-03T05:56:41;21.70;99.90
37530;DHT22;23374;52.758;6.872;2022-07-03T05:59:02;21.90;99.90
37530;DHT22;23374;52.758;6.872;2022-07-03T06:01:22;22.20;95.00
37530;DHT22;23374;52.758;6.872;2022-07-03T06:03:43;22.40;99.90
37530;DHT22;23374;52.758;6.872;2022-07-03T06:06:03;22.80;73.00
37530;DHT22;23374;52.758;6.872;2022-07-03T06:08:24;23.10;1.00
37530;DHT22;23374;52.758;6.872;2022-07-03T06:10:44;23.40;1.00
37530;DHT22;23374;52.758;6.872;2022-07-03T06:13:05;23.80;1.00
37530;DHT22;23374;52.758;6.872;2022-07-03T06:15:25;24.10;1.00
37530;DHT22;23374;52.758;6.872;2022-07-03T06:17:45;24.20;1.00
37530;DHT22;23374;52.758;6.872;2022-07-03T06:20:07;24.20;1.00
37530;DHT22;23374;52.758;6.872;2022-07-03T06:22:27;24.10;1.00
37530;DHT22;23374;52.758;6.872;2022-07-03T06:24:47;24.10;1.00
37530;DHT22;23374;52.758;6.872;2022-07-03T06:27:08;23.90;1.00
37530;DHT22;23374;52.758;6.872;2022-07-03T06:29:28;23.70;1.00
37530;DHT22;23374;52.758;6.872;2022-07-03T06:31:48;23.50;1.00
37530;DHT22;23374;52.758;6.872;2022-07-03T06:34:09;23.40;99.90
37530;DHT22;23374;52.758;6.872;2022-07-03T06:36:29;23.20;99.90
37530;DHT22;23374;52.758;6.872;2022-07-03T06:38:50;22.90;1.00
37530;DHT22;23374;52.758;6.872;2022-07-03T06:41:11;22.60;1.00
37530;DHT22;23374;52.758;6.872;2022-07-03T06:43:31;22.50;99.90
37530;DHT22;23374;52.758;6.872;2022-07-03T06:45:52;22.30;1.00
37530;DHT22;23374;52.758;6.872;2022-07-03T06:48:12;22.00;1.00
37530;DHT22;23374;52.758;6.872;2022-07-03T06:50:32;21.80;99.90
37530;DHT22;23374;52.758;6.872;2022-07-03T06:52:52;21.60;1.00
37530;DHT22;23374;52.758;6.872;2022-07-03T06:55:12;21.50;99.90
37530;DHT22;23374;52.758;6.872;2022-07-03T06:57:33;21.50;1.00
37530;DHT22;23374;52.758;6.872;2022-07-03T06:59:53;21.40;1.00
37530;DHT22;23374;52.758;6.872;2022-07-03T07:02:14;21.30;39.60
37530;DHT22;23374;52.758;6.872;2022-07-03T07:04:34;21.30;1.00
37530;DHT22;23374;52.758;6.872;2022-07-03T07:06:54;21.30;1.00
37530;DHT22;23374;52.758;6.872;2022-07-03T07:09:14;21.30;1.00
37530;DHT22;23374;52.758;6.872;2022-07-03T07:11:35;21.30;1.00
37530;DHT22;23374;52.758;6.872;2022-07-03T07:13:55;21.40;1.00
37530;DHT22;23374;52.758;6.872;2022-07-03T07:16:16;21.50;1.00
37530;DHT22;23374;52.758;6.872;2022-07-03T07:18:36;21.50;1.00
37530;DHT22;23374;52.758;6.872;2022-07-03T07:20:56;21.50;1.00
37530;DHT22;23374;52.758;6.872;2022-07-03T07:23:17;21.50;1.00
37530;DHT22;23374;52.758;6.872;2022-07-03T07:25:37;21.60;1.00
37530;DHT22;23374;52.758;6.872;2022-07-03T07:27:57;21.60;1.00
37530;DHT22;23374;52.758;6.872;2022-07-03T07:30:17;21.60;1.00
37530;DHT22;23374;52.758;6.872;2022-07-03T07:32:37;21.60;1.00
37530;DHT22;23374;52.758;6.872;2022-07-03T07:34:57;21.70;1.00
37530;DHT22;23374;52.758;6.872;2022-07-03T07:37:17;21.70;1.00
37530;DHT22;23374;52.758;6.872;2022-07-03T07:39:37;21.70;1.00
37530;DHT22;23374;52.758;6.872;2022-07-03T07:41:58;21.80;99.90
37530;DHT22;23374;52.758;6.872;2022-07-03T07:44:18;21.80;99.90
37530;DHT22;23374;52.758;6.872;2022-07-03T07:46:38;21.80;99.90
37530;DHT22;23374;52.758;6.872;2022-07-03T07:48:58;21.80;23.40
37530;DHT22;23374;52.758;6.872;2022-07-03T07:51:18;21.80;1.00
37530;DHT22;23374;52.758;6.872;2022-07-03T07:53:38;21.80;1.00
37530;DHT22;23374;52.758;6.872;2022-07-03T07:55:58;21.80;1.00
37530;DHT22;23374;52.758;6.872;2022-07-03T07:58:19;21.90;99.90
37530;DHT22;23374;52.758;6.872;2022-07-03T08:00:39;22.00;1.00
37530;DHT22;23374;52.758;6.872;2022-07-03T08:07:55;22.10;1.00
37530;DHT22;23374;52.758;6.872;2022-07-03T08:10:15;22.20;99.90
37530;DHT22;23374;52.758;6.872;2022-07-03T08:12:35;22.20;1.00
37530;DHT22;23374;52.758;6.872;2022-07-03T08:14:55;22.20;99.90
37530;DHT22;23374;52.758;6.872;2022-07-03T08:17:16;22.30;99.90
37530;DHT22;23374;52.758;6.872;2022-07-03T08:19:36;22.30;1.00
37530;DHT22;23374;52.758;6.872;2022-07-03T08:21:56;22.30;99.90
37530;DHT22;23374;52.758;6.872;2022-07-03T08:24:17;22.40;1.00
37530;DHT22;23374;52.758;6.872;2022-07-03T08:26:37;22.50;99.90
37530;DHT22;23374;52.758;6.872;2022-07-03T08:28:57;22.50;62.70
37530;DHT22;23374;52.758;6.872;2022-07-03T08:31:18;22.60;1.70
37530;DHT22;23374;52.758;6.872;2022-07-03T08:33:38;22.70;1.00
37530;DHT22;23374;52.758;6.872;2022-07-03T08:35:58;22.80;1.00
37530;DHT22;23374;52.758;6.872;2022-07-03T08:38:18;22.80;1.00
37530;DHT22;23374;52.758;6.872;2022-07-03T08:40:40;22.80;1.00
37530;DHT22;23374;52.758;6.872;2022-07-03T08:43:03;22.70;1.00
37530;DHT22;23374;52.758;6.872;2022-07-03T08:45:25;22.70;1.00
37530;DHT22;23374;52.758;6.872;2022-07-03T08:47:47;22.70;1.00
37530;DHT22;23374;52.758;6.872;2022-07-03T08:50:10;22.70;1.00
37530;DHT22;23374;52.758;6.872;2022-07-03T08:52:31;22.80;1.00
37530;DHT22;23374;52.758;6.872;2022-07-03T08:54:53;22.80;1.00
37530;DHT22;23374;52.758;6.872;2022-07-03T08:57:13;22.80;99.90
37530;DHT22;23374;52.758;6.872;2022-07-03T08:59:39;22.80;1.00
37530;DHT22;23374;52.758;6.872;2022-07-03T09:02:00;22.70;1.00
37530;DHT22;23374;52.758;6.872;2022-07-03T09:04:21;22.80;1.00
37530;DHT22;23374;52.758;6.872;2022-07-03T09:06:42;22.80;1.00
37530;DHT22;23374;52.758;6.872;2022-07-03T09:09:03;22.90;99.90
37530;DHT22;23374;52.758;6.872;2022-07-03T09:11:24;22.90;1.00
37530;DHT22;23374;52.758;6.872;2022-07-03T09:13:44;22.90;1.00
37530;DHT22;23374;52.758;6.872;2022-07-03T09:16:05;23.00;99.90
37530;DHT22;23374;52.758;6.872;2022-07-03T09:18:40;23.10;99.90
37530;DHT22;23374;52.758;6.872;2022-07-03T09:21:02;23.10;99.90
37530;DHT22;23374;52.758;6.872;2022-07-03T09:23:23;23.10;99.90
37530;DHT22;23374;52.758;6.872;2022-07-03T09:25:58;23.10;99.90
37530;DHT22;23374;52.758;6.872;2022-07-03T09:28:50;23.10;99.90
37530;DHT22;23374;52.758;6.872;2022-07-03T09:31:16;23.10;99.90
37530;DHT22;23374;52.758;6.872;2022-07-03T09:33:54;23.10;99.90
37530;DHT22;23374;52.758;6.872;2022-07-03T09:36:15;23.10;99.90
37530;DHT22;23374;52.758;6.872;2022-07-03T09:38:43;23.20;99.90
37530;DHT22;23374;52.758;6.872;2022-07-03T09:41:05;23.30;99.90
37530;DHT22;23374;52.758;6.872;2022-07-03T09:43:29;23.50;99.90
37530;DHT22;23374;52.758;6.872;2022-07-03T09:46:02;23.50;99.90
37530;DHT22;23374;52.758;6.872;2022-07-03T09:48:42;23.50;99.90
37530;DHT22;23374;52.758;6.872;2022-07-03T09:52:03;23.40;99.90
37530;DHT22;23374;52.758;6.872;2022-07-03T09:54:25;23.40;99.90
37530;DHT22;23374;52.758;6.872;2022-07-03T09:56:45;23.20;99.90
37530;DHT22;23374;52.758;6.872;2022-07-03T09:59:14;23.20;99.90
37530;DHT22;23374;52.758;6.872;2022-07-03T10:01:37;23.10;99.90
37530;DHT22;23374;52.758;6.872;2022-07-03T10:04:14;23.00;99.90
37530;DHT22;23374;52.758;6.872;2022-07-03T10:06:53;22.80;99.90
37530;DHT22;23374;52.758;6.872;2022-07-03T10:09:16;22.80;99.90
37530;DHT22;23374;52.758;6.872;2022-07-03T10:11:37;23.00;99.90
37530;DHT22;23374;52.758;6.872;2022-07-03T10:13:58;23.20;99.90
37530;DHT22;23374;52.758;6.872;2022-07-03T10:16:19;23.30;99.90
37530;DHT22;23374;52.758;6.872;2022-07-03T10:18:42;23.40;99.90
37530;DHT22;23374;52.758;6.872;2022-07-03T10:21:10;23.60;99.90
37530;DHT22;23374;52.758;6.872;2022-07-03T10:23:32;23.60;99.90
37530;DHT22;23374;52.758;6.872;2022-07-03T10:25:52;23.70;99.90
37530;DHT22;23374;52.758;6.872;2022-07-03T10:28:15;23.80;99.90
37530;DHT22;23374;52.758;6.872;2022-07-03T10:30:36;23.90;99.90
37530;DHT22;23374;52.758;6.872;2022-07-03T10:32:56;23.90;99.90
37530;DHT22;23374;52.758;6.872;2022-07-03T10:35:33;23.80;82.60
37530;DHT22;23374;52.758;6.872;2022-07-03T10:38:56;23.60;77.30
37530;DHT22;23374;52.758;6.872;2022-07-03T10:42:30;23.60;66.30
37530;DHT22;23374;52.758;6.872;2022-07-03T10:45:11;23.60;99.90
37530;DHT22;23374;52.758;6.872;2022-07-03T10:47:50;23.70;99.10
37530;DHT22;23374;52.758;6.872;2022-07-03T10:50:21;23.80;2.90
37530;DHT22;23374;52.758;6.872;2022-07-03T10:52:43;23.80;1.00
37530;DHT22;23374;52.758;6.872;2022-07-03T10:55:05;23.90;70.70
37530;DHT22;23374;52.758;6.872;2022-07-03T10:57:27;24.10;21.20
37530;DHT22;23374;52.758;6.872;2022-07-03T10:59:57;24.20;31.40
37530;DHT22;23374;52.758;6.872;2022-07-03T11:02:51;24.30;9.60
37530;DHT22;23374;52.758;6.872;2022-07-03T11:05:21;24.40;1.00
37530;DHT22;23374;52.758;6.872;2022-07-03T11:09:03;24.40;1.00
37530;DHT22;23374;52.758;6.872;2022-07-03T11:11:46;24.40;1.00
37530;DHT22;23374;52.758;6.872;2022-07-03T11:14:20;24.20;1.00
37530;DHT22;23374;52.758;6.872;2022-07-03T11:16:41;24.20;1.00
37530;DHT22;23374;52.758;6.872;2022-07-03T11:19:01;24.20;1.00
37530;DHT22;23374;52.758;6.872;2022-07-03T11:21:32;24.20;1.00
37530;DHT22;23374;52.758;6.872;2022-07-03T11:24:37;24.10;1.00
37530;DHT22;23374;52.758;6.872;2022-07-03T11:27:19;24.00;1.00
37530;DHT22;23374;52.758;6.872;2022-07-03T11:29:40;24.00;1.00
37530;DHT22;23374;52.758;6.872;2022-07-03T11:32:54;24.20;1.00
37530;DHT22;23374;52.758;6.872;2022-07-03T11:35:47;24.30;5.80
37530;DHT22;23374;52.758;6.872;2022-07-03T11:38:14;24.40;1.00
37530;DHT22;23374;52.758;6.872;2022-07-03T11:40:36;24.50;1.00
37530;DHT22;23374;52.758;6.872;2022-07-03T11:43:00;24.70;1.00
37530;DHT22;23374;52.758;6.872;2022-07-03T11:45:20;24.90;1.00
37530;DHT22;23374;52.758;6.872;2022-07-03T11:47:41;25.10;1.00
37530;DHT22;23374;52.758;6.872;2022-07-03T11:50:02;25.20;1.00
37530;DHT22;23374;52.758;6.872;2022-07-03T11:52:33;25.40;1.00
37530;DHT22;23374;52.758;6.872;2022-07-03T11:54:53;25.30;1.00
37530;DHT22;23374;52.758;6.872;2022-07-03T11:57:14;25.20;1.00
37530;DHT22;23374;52.758;6.872;2022-07-03T11:59:34;25.10;1.00
37530;DHT22;23374;52.758;6.872;2022-07-03T12:02:02;25.00;1.00
37530;DHT22;23374;52.758;6.872;2022-07-03T12:04:23;25.00;1.00
37530;DHT22;23374;52.758;6.872;2022-07-03T12:06:48;24.90;1.00
37530;DHT22;23374;52.758;6.872;2022-07-03T12:09:27;24.80;1.00
37530;DHT22;23374;52.758;6.872;2022-07-03T12:12:08;24.70;1.00
37530;DHT22;23374;52.758;6.872;2022-07-03T12:14:49;24.80;1.00
37530;DHT22;23374;52.758;6.872;2022-07-03T12:17:44;24.90;1.00
37530;DHT22;23374;52.758;6.872;2022-07-03T12:20:07;24.90;1.00
37530;DHT22;23374;52.758;6.872;2022-07-03T12:22:35;25.00;1.00
37530;DHT22;23374;52.758;6.872;2022-07-03T12:25:09;25.10;1.00
37530;DHT22;23374;52.758;6.872;2022-07-03T12:27:34;25.20;1.00
37530;DHT22;23374;52.758;6.872;2022-07-03T12:29:55;25.40;1.00
37530;DHT22;23374;52.758;6.872;2022-07-03T12:32:15;25.40;1.00
37530;DHT22;23374;52.758;6.872;2022-07-03T12:34:36;25.40;1.00
37530;DHT22;23374;52.758;6.872;2022-07-03T12:36:59;25.40;1.00
37530;DHT22;23374;52.758;6.872;2022-07-03T12:39:19;25.40;1.00
37530;DHT22;23374;52.758;6.872;2022-07-03T12:41:39;25.40;1.00
37530;DHT22;23374;52.758;6.872;2022-07-03T12:44:00;25.50;1.00
37530;DHT22;23374;52.758;6.872;2022-07-03T12:46:34;25.60;1.00
37530;DHT22;23374;52.758;6.872;2022-07-03T12:48:58;25.70;1.00
37530;DHT22;23374;52.758;6.872;2022-07-03T12:51:43;25.70;1.00
37530;DHT22;23374;52.758;6.872;2022-07-03T12:54:05;25.60;1.00
37530;DHT22;23374;52.758;6.872;2022-07-03T12:56:25;25.40;1.00
37530;DHT22;23374;52.758;6.872;2022-07-03T12:58:45;25.40;1.00
37530;DHT22;23374;52.758;6.872;2022-07-03T13:01:33;25.40;1.00
37530;DHT22;23374;52.758;6.872;2022-07-03T13:03:54;25.40;1.00
37530;DHT22;23374;52.758;6.872;2022-07-03T13:06:15;25.40;1.00
37530;DHT22;23374;52.758;6.872;2022-07-03T13:08:36;25.20;1.00
37530;DHT22;23374;52.758;6.872;2022-07-03T13:10:59;25.30;1.00
37530;DHT22;23374;52.758;6.872;2022-07-03T13:13:20;25.50;1.00
37530;DHT22;23374;52.758;6.872;2022-07-03T13:15:40;25.80;1.00
37530;DHT22;23374;52.758;6.872;2022-07-03T13:18:01;26.00;1.00
37530;DHT22;23374;52.758;6.872;2022-07-03T13:20:40;26.10;1.00
37530;DHT22;23374;52.758;6.872;2022-07-03T13:23:03;26.20;1.00
37530;DHT22;23374;52.758;6.872;2022-07-03T13:25:24;26.10;1.00
37530;DHT22;23374;52.758;6.872;2022-07-03T13:27:44;26.00;1.00
37530;DHT22;23374;52.758;6.872;2022-07-03T13:30:06;25.90;1.00
37530;DHT22;23374;52.758;6.872;2022-07-03T13:32:27;25.80;1.00
37530;DHT22;23374;52.758;6.872;2022-07-03T13:34:47;25.80;1.00
37530;DHT22;23374;52.758;6.872;2022-07-03T13:37:07;25.90;1.00
37530;DHT22;23374;52.758;6.872;2022-07-03T13:39:27;26.10;1.00
37530;DHT22;23374;52.758;6.872;2022-07-03T13:41:47;26.30;1.00
37530;DHT22;23374;52.758;6.872;2022-07-03T13:44:08;26.20;1.00
37530;DHT22;23374;52.758;6.872;2022-07-03T13:46:28;26.10;1.00
37530;DHT22;23374;52.758;6.872;2022-07-03T13:48:49;26.10;1.00
37530;DHT22;23374;52.758;6.872;2022-07-03T13:51:09;26.00;1.00
37530;DHT22;23374;52.758;6.872;2022-07-03T13:53:30;25.90;1.00
37530;DHT22;23374;52.758;6.872;2022-07-03T13:55:50;25.70;1.00
37530;DHT22;23374;52.758;6.872;2022-07-03T13:58:10;24.40;1.00
37530;DHT22;23374;52.758;6.872;2022-07-03T14:00:31;23.00;1.00
37530;DHT22;23374;52.758;6.872;2022-07-03T14:02:51;21.40;99.90
37530;DHT22;23374;52.758;6.872;2022-07-03T14:05:12;20.30;1.00
37530;DHT22;23374;52.758;6.872;2022-07-03T14:07:32;19.60;56.80
37530;DHT22;23374;52.758;6.872;2022-07-03T14:09:52;19.20;99.90
37530;DHT22;23374;52.758;6.872;2022-07-03T14:12:13;18.90;1.00
37530;DHT22;23374;52.758;6.872;2022-07-03T14:14:33;18.70;1.00
37530;DHT22;23374;52.758;6.872;2022-07-03T14:16:53;18.60;1.00
37530;DHT22;23374;52.758;6.872;2022-07-03T14:19:13;18.60;1.00
37530;DHT22;23374;52.758;6.872;2022-07-03T14:21:34;18.50;99.90
37530;DHT22;23374;52.758;6.872;2022-07-03T14:23:55;18.50;99.90
37530;DHT22;23374;52.758;6.872;2022-07-03T14:26:15;18.60;99.90
37530;DHT22;23374;52.758;6.872;2022-07-03T14:33:36;18.60;21.40
37530;DHT22;23374;52.758;6.872;2022-07-03T14:35:56;18.70;99.90
37530;DHT22;23374;52.758;6.872;2022-07-03T14:38:17;18.90;99.90
37530;DHT22;23374;52.758;6.872;2022-07-03T14:40:37;19.10;99.90
37530;DHT22;23374;52.758;6.872;2022-07-03T14:43:03;19.30;99.90
37530;DHT22;23374;52.758;6.872;2022-07-03T14:45:24;19.40;99.90
37530;DHT22;23374;52.758;6.872;2022-07-03T14:47:45;19.60;21.80
37530;DHT22;23374;52.758;6.872;2022-07-03T14:50:06;19.70;1.00
37530;DHT22;23374;52.758;6.872;2022-07-03T14:52:28;19.80;1.00
37530;DHT22;23374;52.758;6.872;2022-07-03T14:54:48;19.90;99.90
37530;DHT22;23374;52.758;6.872;2022-07-03T14:57:52;20.00;1.00
37530;DHT22;23374;52.758;6.872;2022-07-03T15:00:14;20.20;1.00
37530;DHT22;23374;52.758;6.872;2022-07-03T15:04:19;20.40;1.00
37530;DHT22;23374;52.758;6.872;2022-07-03T15:06:42;20.70;1.00
37530;DHT22;23374;52.758;6.872;2022-07-03T15:09:04;20.70;1.00
37530;DHT22;23374;52.758;6.872;2022-07-03T15:11:52;20.70;95.10
37530;DHT22;23374;52.758;6.872;2022-07-03T15:14:32;20.90;1.00
37530;DHT22;23374;52.758;6.872;2022-07-03T15:16:54;20.90;99.90
37530;DHT22;23374;52.758;6.872;2022-07-03T15:19:15;20.90;99.90
37530;DHT22;23374;52.758;6.872;2022-07-03T15:21:37;21.00;1.00
37530;DHT22;23374;52.758;6.872;2022-07-03T15:24:06;21.00;1.00
37530;DHT22;23374;52.758;6.872;2022-07-03T15:26:29;21.00;99.90
37530;DHT22;23374;52.758;6.872;2022-07-03T15:28:50;21.00;1.00
37530;DHT22;23374;52.758;6.872;2022-07-03T15:31:13;21.00;1.00
37530;DHT22;23374;52.758;6.872;2022-07-03T15:33:33;20.90;26.60
37530;DHT22;23374;52.758;6.872;2022-07-03T15:36:03;20.80;97.20
37530;DHT22;23374;52.758;6.872;2022-07-03T15:38:34;20.80;1.00
37530;DHT22;23374;52.758;6.872;2022-07-03T15:40:56;20.80;19.10
37530;DHT22;23374;52.758;6.872;2022-07-03T15:48:44;20.90;1.00
37530;DHT22;23374;52.758;6.872;2022-07-03T15:52:29;21.00;1.00
37530;DHT22;23374;52.758;6.872;2022-07-03T15:55:03;21.10;99.90
37530;DHT22;23374;52.758;6.872;2022-07-03T15:57:51;21.20;1.00